Time;durP1;ratioP1;P1;durP2;ratioP2;P2;SDS_P1;SDS_P2;PMS_P1;PMS_P2;Temp;Humidity;BMP_temperature;BMP_pressure;BME280_temperature;BME280_humidity;BME280_pressure;Samples;Min_cycle;Max_cycle;Signal;HPM_P1;HPM_P2
2022/02/18 00:01:38;;;;;;;1999.90;999.90;;;6.20;99.90;;;;;;5015003;28;20496;-77
2022/02/18 00:04:06;;;;;;;1999.90;999.90;;;6.10;99.90;;;;;;5014916;28;20473;-77
2022/02/18 00:06:36;;;;;;;1999.90;999.90;;;6.20;99.90;;;;;;5015953;28;20478;-77
2022/02/18 00:09:05;;;;;;;1236.63;390.50;;;6.10;99.90;;;;;;5016112;28;20476;-77
2022/02/18 00:11:33;;;;;;;1999.90;999.90;;;6.10;99.90;;;;;;5031047;28;20468;-77
2022/02/18 00:14:02;;;;;;;1999.90;999.90;;;6.10;99.90;;;;;;5014652;28;20546;-77
2022/02/18 00:16:31;;;;;;;1999.90;999.90;;;6.10;99.90;;;;;;5016262;28;20476;-77
2022/02/18 00:18:59;;;;;;;1999.90;999.90;;;6.10;99.90;;;;;;5014743;28;20499;-77
2022/02/18 00:21:27;;;;;;;1999.90;350.57;;;6.10;99.90;;;;;;5014248;28;20791;-77
2022/02/18 00:23:55;;;;;;;1999.90;999.90;;;6.00;99.90;;;;;;5015537;28;20555;-78
2022/02/18 00:26:24;;;;;;;1999.90;999.90;;;6.00;99.90;;;;;;5015065;28;20558;-77
2022/02/18 00:28:54;;;;;;;1999.90;999.90;;;6.00;99.90;;;;;;5014104;28;20815;-77
2022/02/18 00:31:26;;;;;;;1999.90;999.90;;;6.00;99.90;;;;;;5014282;28;20480;-78
2022/02/18 00:33:55;;;;;;;1999.90;999.90;;;6.00;99.90;;;;;;5014144;28;20466;-77
2022/02/18 00:36:23;;;;;;;1999.90;999.90;;;6.00;99.90;;;;;;5014343;28;20462;-78
2022/02/18 00:38:51;;;;;;;1999.90;999.90;;;6.00;99.90;;;;;;5014858;28;20441;-77
2022/02/18 00:41:20;;;;;;;1999.90;999.90;;;6.00;99.90;;;;;;5014594;28;20480;-78
2022/02/18 00:43:48;;;;;;;1999.90;999.90;;;6.00;99.90;;;;;;5015231;28;20460;-78
2022/02/18 00:46:16;;;;;;;1999.90;999.90;;;5.90;99.90;;;;;;5014954;28;20510;-77
2022/02/18 00:48:46;;;;;;;1999.90;999.90;;;6.00;99.90;;;;;;5015256;28;20458;-77
2022/02/18 00:51:17;;;;;;;1999.90;999.90;;;6.00;99.90;;;;;;5015160;28;20479;-78
2022/02/18 00:53:45;;;;;;;1999.90;999.90;;;5.90;99.90;;;;;;5014424;28;20523;-77
2022/02/18 00:56:14;;;;;;;1999.90;999.90;;;5.90;99.90;;;;;;5014354;28;20451;-77
2022/02/18 00:58:42;;;;;;;1999.90;999.90;;;5.90;99.90;;;;;;5013893;28;21004;-77
2022/02/18 01:01:10;;;;;;;1999.90;999.90;;;5.90;99.90;;;;;;5013295;28;20482;-77
2022/02/18 01:03:39;;;;;;;1999.90;999.90;;;5.90;99.90;;;;;;5013980;28;20476;-77
2022/02/18 01:06:09;;;;;;;1999.90;999.90;;;5.90;99.90;;;;;;5014564;28;20976;-77
2022/02/18 01:08:37;;;;;;;1999.90;999.90;;;5.90;99.90;;;;;;5015904;28;20447;-77
2022/02/18 01:11:06;;;;;;;1999.90;999.90;;;5.90;99.90;;;;;;5016184;28;20559;-77
2022/02/18 01:13:35;;;;;;;1999.90;999.90;;;5.90;99.90;;;;;;5015191;28;20515;-77
2022/02/18 01:16:04;;;;;;;1999.90;999.90;;;5.90;99.90;;;;;;5014540;28;20502;-78
2022/02/18 01:18:32;;;;;;;1999.90;999.90;;;5.90;99.90;;;;;;5014728;28;20452;-77
2022/02/18 01:21:01;;;;;;;1999.90;999.90;;;5.90;99.90;;;;;;5016976;28;20662;-77
2022/02/18 01:23:30;;;;;;;1999.90;999.90;;;5.80;99.90;;;;;;5017570;28;20538;-78
2022/02/18 01:25:59;;;;;;;1999.90;999.90;;;5.80;99.90;;;;;;5018283;28;20459;-77
2022/02/18 01:28:27;;;;;;;1999.90;999.90;;;5.80;99.90;;;;;;5018218;28;20448;-78
2022/02/18 01:30:55;;;;;;;1999.90;999.90;;;5.80;99.90;;;;;;5018100;28;20483;-77
2022/02/18 01:33:24;;;;;;;1999.90;999.90;;;5.90;99.90;;;;;;5019079;28;20467;-77
2022/02/18 01:35:52;;;;;;;1999.90;999.90;;;5.90;99.90;;;;;;5019385;28;20498;-78
2022/02/18 01:38:20;;;;;;;1999.90;999.90;;;5.90;99.90;;;;;;5017473;28;20981;-77
2022/02/18 01:40:50;;;;;;;1999.90;999.90;;;5.90;99.90;;;;;;5016968;28;20562;-77
2022/02/18 01:43:19;;;;;;;1999.90;999.90;;;5.90;99.90;;;;;;5017882;28;20467;-77
2022/02/18 01:45:49;;;;;;;1999.90;999.90;;;5.90;99.90;;;;;;5016960;28;20815;-77
2022/02/18 01:48:19;;;;;;;1999.90;999.90;;;5.90;99.90;;;;;;5017826;28;20985;-77
2022/02/18 01:50:51;;;;;;;1999.90;999.90;;;5.90;99.90;;;;;;5006435;28;20892;-77
2022/02/18 01:53:19;;;;;;;1999.90;999.90;;;5.90;99.90;;;;;;5017731;28;20445;-77
2022/02/18 01:55:48;;;;;;;1999.90;999.90;;;5.90;99.90;;;;;;5017828;28;20458;-77
2022/02/18 01:58:22;;;;;;;1999.90;999.90;;;5.90;99.90;;;;;;5017187;28;20878;-78
2022/02/18 02:00:54;;;;;;;1999.90;999.90;;;5.90;99.90;;;;;;5018026;28;21026;-77
2022/02/18 02:03:23;;;;;;;1999.90;999.90;;;5.90;99.90;;;;;;5018836;28;20479;-77
2022/02/18 02:05:55;;;;;;;1999.90;999.90;;;5.90;99.90;;;;;;5017455;28;20459;-78
2022/02/18 02:08:26;;;;;;;1999.90;999.90;;;5.90;99.90;;;;;;5017594;28;20494;-78
2022/02/18 02:10:54;;;;;;;1999.90;999.90;;;5.90;99.90;;;;;;5018565;28;20460;-78
2022/02/18 02:13:32;;;;;;;1999.90;999.90;;;5.90;99.90;;;;;;5017777;28;20444;-78
2022/02/18 02:16:03;;;;;;;1999.90;999.90;;;5.90;99.90;;;;;;5017334;28;20470;-78
2022/02/18 02:18:32;;;;;;;1999.90;999.90;;;5.90;99.90;;;;;;5017364;28;20949;-77
2022/02/18 02:21:01;;;;;;;1999.90;999.90;;;5.90;99.90;;;;;;5016976;28;20981;-77
2022/02/18 02:23:37;;;;;;;1999.90;999.90;;;5.90;99.90;;;;;;5017254;28;20499;-77
2022/02/18 02:26:10;;;;;;;1589.60;459.60;;;5.90;99.90;;;;;;5017091;28;20452;-78
2022/02/18 02:28:39;;;;;;;1999.90;999.90;;;5.90;99.90;;;;;;5016855;28;20487;-78
2022/02/18 02:31:08;;;;;;;1999.90;999.90;;;5.90;99.90;;;;;;5015632;28;20555;-77
2022/02/18 02:33:40;;;;;;;1999.90;999.90;;;5.80;99.90;;;;;;5016923;28;20506;-77
2022/02/18 02:36:17;;;;;;;1999.90;999.90;;;5.80;99.90;;;;;;5016876;28;20432;-77
2022/02/18 02:38:48;;;;;;;1999.90;999.90;;;5.80;99.90;;;;;;5016170;28;20818;-77
2022/02/18 02:41:18;;;;;;;1999.90;999.90;;;5.80;99.90;;;;;;5033409;28;20475;-77
2022/02/18 02:43:47;;;;;;;1999.90;999.90;;;5.80;99.90;;;;;;5017425;28;20472;-78
2022/02/18 02:46:16;;;;;;;1999.90;999.90;;;5.80;99.90;;;;;;5015660;28;21003;-77
2022/02/18 02:48:46;;;;;;;1999.90;999.90;;;5.80;99.90;;;;;;5015748;28;20455;-78
2022/02/18 02:51:25;;;;;;;1999.90;999.90;;;5.80;99.90;;;;;;5016208;28;20478;-77
2022/02/18 02:53:55;;;;;;;1999.90;999.90;;;5.80;99.90;;;;;;5016226;28;20941;-77
2022/02/18 02:56:25;;;;;;;1999.90;999.90;;;5.80;99.90;;;;;;5032848;28;20530;-77
2022/02/18 02:58:54;;;;;;;1999.90;999.90;;;5.70;99.90;;;;;;5016163;28;20456;-77
2022/02/18 03:01:31;;;;;;;1999.90;999.90;;;5.70;99.90;;;;;;5016514;28;20847;-78
2022/02/18 03:03:59;;;;;;;1999.90;999.90;;;5.70;99.90;;;;;;5016324;28;20878;-77
2022/02/18 03:06:30;;;;;;;1894.37;737.17;;;5.70;99.90;;;;;;5017070;28;20447;-78
2022/02/18 03:09:10;;;;;;;1999.90;999.90;;;5.70;99.90;;;;;;5014765;28;20816;-77
2022/02/18 03:12:03;;;;;;;1999.90;999.90;;;5.70;99.90;;;;;;5016238;28;20483;-77
2022/02/18 03:14:43;;;;;;;1631.07;472.33;;;5.70;99.90;;;;;;5018248;28;20432;-77
2022/02/18 03:17:22;;;;;;;1999.90;999.90;;;5.70;99.90;;;;;;5016308;28;20455;-77
2022/02/18 03:19:57;;;;;;;1999.90;999.90;;;5.70;99.90;;;;;;5015896;28;20444;-77
2022/02/18 03:22:37;;;;;;;1999.90;999.90;;;5.70;99.90;;;;;;5016343;28;20439;-77
2022/02/18 03:25:08;;;;;;;1999.90;999.90;;;5.70;99.90;;;;;;5017271;28;20460;-78
2022/02/18 03:27:40;;;;;;;1999.90;999.90;;;5.60;99.90;;;;;;5015714;28;20883;-77
2022/02/18 03:30:10;;;;;;;1999.90;999.90;;;5.60;99.90;;;;;;5016182;28;20479;-78
2022/02/18 03:32:41;;;;;;;1999.90;999.90;;;5.60;99.90;;;;;;5016016;28;20486;-77
2022/02/18 03:35:10;;;;;;;1999.90;727.60;;;5.60;99.90;;;;;;5014909;28;20533;-77
2022/02/18 03:37:42;;;;;;;1999.90;999.90;;;5.60;99.90;;;;;;5030680;28;20436;-77
2022/02/18 03:40:28;;;;;;;1999.90;999.90;;;5.60;99.90;;;;;;5014153;28;20518;-77
2022/02/18 03:42:56;;;;;;;1999.90;999.90;;;5.60;99.90;;;;;;5013193;28;20825;-77
2022/02/18 03:45:30;;;;;;;1999.90;999.90;;;5.50;99.90;;;;;;5013805;28;20447;-77
2022/02/18 03:48:00;;;;;;;1999.90;999.90;;;5.60;99.90;;;;;;5013646;28;20470;-77
2022/02/18 03:50:30;;;;;;;1999.90;999.90;;;5.50;99.90;;;;;;5013050;28;20945;-77
2022/02/18 03:52:58;;;;;;;1749.97;499.03;;;5.50;99.90;;;;;;5013546;28;20881;-77
2022/02/18 03:55:30;;;;;;;1999.90;999.90;;;5.60;99.90;;;;;;5013463;28;20451;-77
2022/02/18 03:58:16;;;;;;;1999.90;999.90;;;5.50;99.90;;;;;;5013730;28;20840;-77
2022/02/18 04:00:51;;;;;;;1999.90;758.30;;;5.50;99.90;;;;;;5013386;28;20503;-77
2022/02/18 04:03:20;;;;;;;1999.90;766.97;;;5.50;99.90;;;;;;5013511;28;20491;-77
2022/02/18 04:06:07;;;;;;;1999.90;999.90;;;5.50;99.90;;;;;;5014727;28;20431;-77
2022/02/18 04:08:45;;;;;;;1999.90;752.33;;;5.50;99.90;;;;;;5013427;28;20428;-77
2022/02/18 04:11:33;;;;;;;1999.90;999.90;;;5.50;99.90;;;;;;5013162;28;20480;-77
2022/02/18 04:14:06;;;;;;;1999.90;999.90;;;5.50;99.90;;;;;;5012831;28;20452;-77
2022/02/18 04:16:35;;;;;;;1999.90;999.90;;;5.50;99.90;;;;;;5013268;28;20456;-77
2022/02/18 04:19:09;;;;;;;1999.90;290.47;;;5.50;99.90;;;;;;5013148;28;20460;-77
2022/02/18 04:21:45;;;;;;;1999.90;999.90;;;5.50;99.90;;;;;;5012569;28;20471;-77
2022/02/18 04:24:19;;;;;;;1999.90;747.50;;;5.50;99.90;;;;;;5012820;28;20467;-77
2022/02/18 04:26:49;;;;;;;1999.90;999.90;;;5.50;99.90;;;;;;5012786;28;20941;-77
2022/02/18 04:29:18;;;;;;;1999.90;560.50;;;5.50;99.90;;;;;;5014365;28;20479;-77
2022/02/18 04:31:47;;;;;;;1999.90;999.90;;;5.50;99.90;;;;;;5035546;28;20984;-77
2022/02/18 04:34:16;;;;;;;1999.90;185.60;;;5.50;99.90;;;;;;5013075;28;20444;-77
2022/02/18 04:36:46;;;;;;;1999.90;362.47;;;5.50;99.90;;;;;;5012847;28;20991;-77
2022/02/18 04:39:14;;;;;;;1999.90;598.97;;;5.50;99.90;;;;;;5013033;28;20480;-77
2022/02/18 04:41:43;;;;;;;1999.90;438.37;;;5.50;99.90;;;;;;5014181;28;20829;-78
2022/02/18 04:44:14;;;;;;;1999.90;417.43;;;5.50;99.90;;;;;;5013016;28;20482;-77
2022/02/18 04:46:42;;;;;;;1999.90;999.90;;;5.50;99.90;;;;;;5014139;28;20447;-77
2022/02/18 04:49:17;;;;;;;1999.90;588.27;;;5.50;99.90;;;;;;5013010;28;20455;-77
2022/02/18 04:52:06;;;;;;;1999.90;999.90;;;5.50;99.90;;;;;;5013079;28;20478;-77
2022/02/18 04:54:35;;;;;;;1999.90;999.90;;;5.50;99.90;;;;;;5013375;28;20978;-77
2022/02/18 04:57:03;;;;;;;1999.90;575.70;;;5.50;99.90;;;;;;5016857;28;20448;-77
2022/02/18 04:59:33;;;;;;;1999.90;544.37;;;5.50;99.90;;;;;;5018460;28;20522;-77
2022/02/18 05:02:01;;;;;;;1999.90;439.73;;;5.50;99.90;;;;;;5018914;28;20529;-77
2022/02/18 05:04:30;;;;;;;1999.90;533.83;;;5.50;99.90;;;;;;5017062;28;20474;-77
2022/02/18 05:06:58;;;;;;;1999.90;999.90;;;5.50;99.90;;;;;;5017132;28;20451;-77
2022/02/18 05:09:27;;;;;;;1999.90;999.90;;;5.60;99.90;;;;;;5017465;28;20522;-77
2022/02/18 05:11:57;;;;;;;1999.90;999.90;;;5.50;99.90;;;;;;5016712;28;20511;-77
2022/02/18 05:14:28;;;;;;;1999.90;849.67;;;5.60;99.90;;;;;;5018283;28;20529;-77
2022/02/18 05:16:57;;;;;;;1999.90;475.77;;;5.50;99.90;;;;;;5016593;28;20473;-77
2022/02/18 05:19:25;;;;;;;1999.90;999.90;;;5.50;99.90;;;;;;5016450;28;20474;-77
2022/02/18 05:21:53;;;;;;;1999.90;831.30;;;5.50;99.90;;;;;;5016360;28;20459;-77
2022/02/18 05:24:22;;;;;;;1999.90;999.90;;;5.50;99.90;;;;;;5017513;28;20475;-77
2022/02/18 05:26:50;;;;;;;1812.80;726.50;;;5.60;99.90;;;;;;5016213;28;20451;-77
2022/02/18 05:29:20;;;;;;;1999.90;401.47;;;5.60;99.90;;;;;;5016653;28;20459;-77
2022/02/18 05:31:48;;;;;;;1999.90;453.63;;;5.60;99.90;;;;;;5016562;28;21007;-77
2022/02/18 05:34:18;;;;;;;1999.90;772.93;;;5.60;99.90;;;;;;5017298;28;20444;-77
2022/02/18 05:36:46;;;;;;;1999.90;379.13;;;5.60;99.90;;;;;;5016144;28;20800;-77
2022/02/18 05:39:14;;;;;;;1999.90;822.40;;;5.60;99.90;;;;;;5016425;28;20477;-77
2022/02/18 05:41:45;;;;;;;1999.90;999.90;;;5.60;99.90;;;;;;5016992;28;20827;-77
2022/02/18 05:44:13;;;;;;;1999.90;428.53;;;5.60;99.90;;;;;;5015327;28;20849;-77
2022/02/18 05:46:43;;;;;;;1999.90;533.77;;;5.60;99.90;;;;;;5017677;28;20443;-77
2022/02/18 05:49:11;;;;;;;1999.90;392.73;;;5.60;99.90;;;;;;5015958;28;20452;-77
2022/02/18 05:51:41;;;;;;;1999.90;999.90;;;5.60;99.90;;;;;;5017905;28;20522;-78
2022/02/18 05:54:09;;;;;;;1999.90;999.90;;;5.60;99.90;;;;;;5016635;28;20487;-77
2022/02/18 05:56:37;;;;;;;1999.90;813.57;;;5.60;99.90;;;;;;5017489;28;20478;-77
2022/02/18 05:59:07;;;;;;;1999.90;567.03;;;5.60;99.90;;;;;;5016672;28;20555;-77
2022/02/18 06:01:38;;;;;;;1999.90;552.50;;;5.70;99.90;;;;;;5017866;28;20459;-77
2022/02/18 06:04:06;;;;;;;1999.90;999.90;;;5.60;99.90;;;;;;5016402;28;20460;-78
2022/02/18 06:06:35;;;;;;;1999.90;302.00;;;5.60;99.90;;;;;;5017023;28;20432;-77
2022/02/18 06:09:04;;;;;;;1999.90;594.23;;;5.60;99.90;;;;;;5017814;28;20442;-77
2022/02/18 06:11:35;;;;;;;1999.90;486.23;;;5.50;99.90;;;;;;5016414;28;20464;-77
2022/02/18 06:14:03;;;;;;;1999.90;785.70;;;5.60;99.90;;;;;;5017781;28;20448;-77
2022/02/18 06:16:32;;;;;;;1999.90;633.70;;;5.60;99.90;;;;;;5015916;28;20881;-77
2022/02/18 06:19:03;;;;;;;1999.90;603.03;;;5.60;99.90;;;;;;5016028;28;20458;-77
2022/02/18 06:21:33;;;;;;;1999.90;999.90;;;5.60;99.90;;;;;;5015719;28;20530;-77
2022/02/18 06:24:02;;;;;;;1929.47;382.10;;;5.60;99.90;;;;;;5017289;28;20420;-77
2022/02/18 06:26:31;;;;;;;1999.90;519.67;;;5.60;99.90;;;;;;5015771;28;20479;-77
2022/02/18 06:28:59;;;;;;;1999.90;590.23;;;5.60;99.90;;;;;;5017138;28;21032;-77
2022/02/18 06:31:30;;;;;;;1999.90;578.17;;;5.60;99.90;;;;;;5015927;28;20846;-78
2022/02/18 06:33:58;;;;;;;1999.90;396.43;;;5.60;99.90;;;;;;5016004;28;20551;-77
2022/02/18 06:36:26;;;;;;;1999.90;999.90;;;5.60;99.90;;;;;;5016567;28;20949;-78
2022/02/18 06:38:54;;;;;;;1979.20;465.17;;;5.60;99.90;;;;;;5017902;28;20941;-77
2022/02/18 06:41:22;;;;;;;1999.90;846.80;;;5.70;99.90;;;;;;5016730;28;20517;-77
2022/02/18 06:43:52;;;;;;;1999.90;410.57;;;5.70;99.90;;;;;;5018091;28;20490;-77
2022/02/18 06:46:20;;;;;;;1999.90;479.67;;;5.70;99.90;;;;;;5015580;28;20551;-77
2022/02/18 06:48:50;;;;;;;1999.90;677.00;;;5.70;99.90;;;;;;5016146;28;20468;-78
2022/02/18 06:51:18;;;;;;;1999.90;660.40;;;5.70;99.90;;;;;;5015259;28;21010;-78
2022/02/18 06:53:46;;;;;;;1999.90;402.90;;;5.70;99.90;;;;;;5017215;28;20887;-77
2022/02/18 06:56:14;;;;;;;1999.90;524.27;;;5.70;99.90;;;;;;5017246;28;20452;-77
2022/02/18 06:58:43;;;;;;;1999.90;468.80;;;5.70;99.90;;;;;;5015624;28;20454;-78
2022/02/18 07:01:13;;;;;;;1514.43;307.07;;;5.80;99.90;;;;;;5032152;28;20551;-77
2022/02/18 07:03:42;;;;;;;1944.03;477.03;;;5.80;99.90;;;;;;5017130;28;20467;-77
2022/02/18 07:06:14;;;;;;;1720.00;339.17;;;5.80;99.90;;;;;;5017258;28;20452;-77
2022/02/18 07:08:42;;;;;;;1018.77;205.23;;;5.80;99.90;;;;;;5017514;28;20475;-77
2022/02/18 07:11:11;;;;;;;1965.97;518.60;;;5.80;99.90;;;;;;5015982;28;20467;-77
2022/02/18 07:13:40;;;;;;;1718.53;359.53;;;5.90;99.90;;;;;;5016364;28;20440;-78
2022/02/18 07:16:08;;;;;;;1454.27;288.83;;;5.90;99.90;;;;;;5015500;28;20444;-77
2022/02/18 07:18:39;;;;;;;946.27;177.63;;;5.90;99.90;;;;;;5014958;28;20494;-77
2022/02/18 07:21:07;;;;;;;873.43;181.50;;;5.90;99.90;;;;;;5015932;28;20496;-77
2022/02/18 07:23:38;;;;;;;1731.27;348.03;;;5.90;99.90;;;;;;5016305;28;20534;-78
2022/02/18 07:26:06;;;;;;;1398.73;260.93;;;5.90;99.90;;;;;;5017426;28;20502;-78
2022/02/18 07:28:35;;;;;;;1725.87;361.37;;;6.00;99.90;;;;;;5017634;28;20535;-78
2022/02/18 07:31:03;;;;;;;487.60;134.70;;;6.00;99.90;;;;;;5017603;28;20885;-78
2022/02/18 07:33:32;;;;;;;358.10;72.20;;;6.00;99.90;;;;;;5034645;28;20464;-78
2022/02/18 07:36:01;;;;;;;360.50;71.90;;;6.00;99.90;;;;;;5017757;28;20531;-78
2022/02/18 07:38:29;;;;;;;185.13;31.60;;;6.00;99.90;;;;;;5018419;28;20448;-78
2022/02/18 07:40:59;;;;;;;316.50;64.17;;;6.00;99.90;;;;;;5017583;28;20475;-78
2022/02/18 07:43:28;;;;;;;306.30;87.53;;;6.00;99.90;;;;;;5017927;28;20485;-78
2022/02/18 07:46:08;;;;;;;1288.83;271.30;;;6.10;99.90;;;;;;5019615;28;20458;-78
2022/02/18 07:48:38;;;;;;;1152.27;234.60;;;6.10;99.90;;;;;;5018400;28;20476;-78
2022/02/18 07:51:07;;;;;;;805.37;172.17;;;6.10;99.90;;;;;;5017676;28;20996;-78
2022/02/18 07:53:36;;;;;;;357.17;72.57;;;6.10;99.90;;;;;;5018261;28;20494;-78
2022/02/18 07:56:04;;;;;;;286.20;42.47;;;6.10;99.90;;;;;;5019251;28;20498;-78
2022/02/18 07:58:35;;;;;;;189.00;40.77;;;6.10;99.90;;;;;;5020370;28;20432;-78
2022/02/18 08:01:04;;;;;;;529.60;82.27;;;6.10;99.90;;;;;;5019638;28;20478;-78
2022/02/18 08:03:34;;;;;;;427.93;76.30;;;6.10;99.90;;;;;;5017646;28;20455;-78
2022/02/18 08:06:03;;;;;;;428.63;116.33;;;6.10;99.90;;;;;;5019623;28;20480;-78
2022/02/18 08:08:34;;;;;;;306.43;33.57;;;6.10;99.90;;;;;;5017921;28;20452;-78
2022/02/18 08:11:03;;;;;;;268.13;59.17;;;6.10;99.90;;;;;;5019653;28;20470;-78
2022/02/18 08:13:31;;;;;;;313.50;52.33;;;6.10;99.90;;;;;;5018718;28;20451;-78
2022/02/18 08:16:00;;;;;;;489.83;101.13;;;6.10;99.90;;;;;;5019444;28;20444;-78
2022/02/18 08:18:28;;;;;;;209.17;26.57;;;6.20;99.90;;;;;;5019026;28;20448;-78
2022/02/18 08:20:58;;;;;;;275.27;39.20;;;6.20;99.90;;;;;;5018411;28;20471;-78
2022/02/18 08:23:28;;;;;;;191.70;41.37;;;6.20;99.90;;;;;;5017896;28;20531;-78
2022/02/18 08:25:58;;;;;;;229.53;46.23;;;6.20;99.90;;;;;;5017952;28;20487;-78
2022/02/18 08:28:26;;;;;;;308.93;58.13;;;6.20;99.90;;;;;;5017789;28;20531;-78
2022/02/18 08:30:56;;;;;;;302.93;73.60;;;6.20;99.90;;;;;;5019236;28;20529;-78
2022/02/18 08:33:24;;;;;;;281.13;35.27;;;6.20;99.90;;;;;;5017280;28;20518;-78
2022/02/18 08:35:54;;;;;;;780.37;142.70;;;6.20;99.90;;;;;;5017101;28;20824;-78
2022/02/18 08:38:22;;;;;;;134.30;33.93;;;6.20;99.90;;;;;;5017261;28;20440;-78
2022/02/18 08:40:51;;;;;;;220.10;30.73;;;6.20;99.90;;;;;;5018388;28;20468;-78
2022/02/18 08:43:23;;;;;;;271.63;60.83;;;6.20;99.90;;;;;;5018873;28;20833;-78
2022/02/18 08:45:51;;;;;;;340.97;50.40;;;6.20;99.90;;;;;;5017382;28;20446;-78
2022/02/18 08:48:19;;;;;;;203.77;33.67;;;6.20;99.90;;;;;;5033977;28;20932;-78
2022/02/18 08:50:59;;;;;;;250.67;44.33;;;6.20;99.90;;;;;;5019345;28;20475;-78
2022/02/18 08:53:28;;;;;;;198.67;36.17;;;6.20;99.90;;;;;;5019503;28;20427;-78
2022/02/18 08:55:58;;;;;;;310.40;43.40;;;6.30;99.90;;;;;;5017648;28;20452;-78
2022/02/18 08:58:29;;;;;;;330.97;45.93;;;6.30;99.90;;;;;;5018027;28;20448;-78
2022/02/18 09:00:59;;;;;;;366.40;75.93;;;6.30;99.90;;;;;;5017844;28;20479;-78
2022/02/18 09:03:29;;;;;;;277.00;35.10;;;6.30;99.90;;;;;;5017874;28;20559;-78
2022/02/18 09:05:58;;;;;;;185.67;33.27;;;6.30;99.90;;;;;;5017688;28;20487;-78
2022/02/18 09:08:26;;;;;;;196.60;35.80;;;6.40;99.90;;;;;;5017618;28;20443;-78
2022/02/18 09:10:55;;;;;;;194.37;31.37;;;6.30;99.90;;;;;;5018493;28;20529;-78
2022/02/18 09:13:39;;;;;;;253.43;45.53;;;6.40;99.90;;;;;;5017708;28;20440;-78
2022/02/18 09:23:28;;;;;;;1073.00;208.43;;;6.50;99.90;;;;;;4863216;29;20826;-78
2022/02/18 09:33:17;;;;;;;1084.27;233.07;;;6.50;99.90;;;;;;4845340;29;20481;-78
2022/02/18 09:35:59;;;;;;;233.60;39.03;;;6.60;99.90;;;;;;4881227;29;20458;-78
2022/02/18 09:38:28;;;;;;;177.80;36.37;;;6.60;99.90;;;;;;4866627;29;20517;-78
2022/02/18 09:40:59;;;;;;;167.20;32.10;;;6.60;99.90;;;;;;4867282;29;20495;-78
2022/02/18 09:43:28;;;;;;;190.87;28.07;;;6.60;99.90;;;;;;4919149;29;20445;-78
2022/02/18 09:45:59;;;;;;;271.97;34.03;;;6.60;99.90;;;;;;4923090;29;20447;-78
2022/02/18 09:48:33;;;;;;;197.23;25.80;;;6.70;99.90;;;;;;4919276;28;20884;-78
2022/02/18 09:51:02;;;;;;;193.40;27.90;;;6.70;99.90;;;;;;4998976;28;20499;-78
2022/02/18 09:53:31;;;;;;;224.70;34.67;;;6.70;99.90;;;;;;5020673;28;21041;-78
2022/02/18 09:56:01;;;;;;;273.13;32.33;;;6.70;99.90;;;;;;5020031;28;20542;-78
2022/02/18 09:58:32;;;;;;;244.47;40.77;;;6.80;99.90;;;;;;5020196;28;20448;-78
2022/02/18 10:01:00;;;;;;;243.10;34.73;;;6.80;99.90;;;;;;5021319;28;20463;-78
2022/02/18 10:03:30;;;;;;;205.50;23.43;;;6.80;99.90;;;;;;5019734;28;20522;-78
2022/02/18 10:06:44;;;;;;;219.80;27.87;;;6.80;99.90;;;;;;4979506;28;20481;-78
2022/02/18 10:09:16;;;;;;;159.17;27.10;;;6.80;99.90;;;;;;4980284;28;20469;-78
2022/02/18 10:11:56;;;;;;;216.23;27.63;;;6.80;99.90;;;;;;4963463;28;20492;-78
2022/02/18 10:14:24;;;;;;;227.47;33.67;;;6.80;99.90;;;;;;4979628;28;20933;-78
2022/02/18 10:16:56;;;;;;;167.23;28.80;;;6.80;99.90;;;;;;4963740;28;20438;-78
2022/02/18 10:19:26;;;;;;;132.83;20.80;;;6.80;99.90;;;;;;4979689;28;20450;-78
2022/02/18 10:22:03;;;;;;;226.53;35.07;;;6.80;99.90;;;;;;5011456;28;20471;-78
2022/02/18 10:24:40;;;;;;;168.73;30.07;;;6.80;99.90;;;;;;5019578;28;20475;-78
2022/02/18 10:27:08;;;;;;;277.90;41.00;;;6.80;99.90;;;;;;5019921;28;20519;-78
2022/02/18 10:29:57;;;;;;;177.23;35.50;;;6.80;99.90;;;;;;5020612;28;20467;-78
2022/02/18 10:32:26;;;;;;;132.00;23.43;;;6.90;99.90;;;;;;5020725;28;20456;-78
2022/02/18 10:34:57;;;;;;;93.93;24.70;;;6.90;99.90;;;;;;5020421;28;20467;-78
2022/02/18 10:37:27;;;;;;;236.87;39.80;;;6.90;99.90;;;;;;5036861;28;20453;-78
2022/02/18 10:40:10;;;;;;;238.70;32.23;;;6.90;99.90;;;;;;5020306;28;20447;-78
2022/02/18 10:42:40;;;;;;;207.17;32.80;;;6.90;99.90;;;;;;5020521;28;20432;-78
2022/02/18 10:45:12;;;;;;;151.63;22.63;;;6.90;99.90;;;;;;5020976;28;20506;-78
2022/02/18 10:47:42;;;;;;;118.00;20.00;;;7.00;99.90;;;;;;5020768;28;20468;-78
2022/02/18 10:50:20;;;;;;;185.53;29.83;;;7.00;99.90;;;;;;5021036;28;20554;-78
2022/02/18 10:53:10;;;;;;;188.57;24.63;;;7.00;99.90;;;;;;5019842;28;20909;-79
2022/02/18 10:55:49;;;;;;;165.50;18.83;;;7.00;99.90;;;;;;5022560;28;20887;-78
2022/02/18 10:58:27;;;;;;;96.23;17.47;;;7.10;99.90;;;;;;5021982;28;20938;-78
2022/02/18 11:01:13;;;;;;;192.63;26.13;;;7.10;99.90;;;;;;5021909;28;20476;-78
2022/02/18 11:03:45;;;;;;;207.07;25.13;;;7.10;99.90;;;;;;5022022;28;20468;-78
2022/02/18 11:06:20;;;;;;;261.60;30.90;;;7.20;99.90;;;;;;5023207;28;20825;-79
2022/02/18 11:08:58;;;;;;;222.50;28.93;;;7.10;99.90;;;;;;5021721;28;20468;-78
2022/02/18 11:11:31;;;;;;;112.53;22.40;;;7.20;99.90;;;;;;5020666;28;20502;-78
2022/02/18 11:14:01;;;;;;;187.63;22.27;;;7.20;99.90;;;;;;5020715;28;20452;-79
2022/02/18 11:16:33;;;;;;;229.83;34.07;;;7.20;99.90;;;;;;5022639;28;20451;-79
2022/02/18 11:19:03;;;;;;;241.83;30.33;;;7.20;99.90;;;;;;5022114;28;20451;-78
2022/02/18 11:21:33;;;;;;;172.00;20.37;;;7.20;99.90;;;;;;5021542;28;20490;-78
2022/02/18 11:24:04;;;;;;;76.63;17.43;;;7.30;99.90;;;;;;5022127;28;20483;-79
2022/02/18 11:26:35;;;;;;;267.07;33.17;;;7.30;99.90;;;;;;5021866;28;20449;-78
2022/02/18 11:29:05;;;;;;;202.63;23.90;;;7.30;99.90;;;;;;5021222;28;20512;-78
2022/02/18 11:31:41;;;;;;;196.00;31.27;;;7.30;99.90;;;;;;5022840;28;20555;-79
2022/02/18 11:34:42;;;;;;;125.83;22.53;;;7.40;99.90;;;;;;5039099;28;21007;-79
2022/02/18 11:37:53;;;;;;;224.27;32.10;;;7.40;99.90;;;;;;5021908;28;20457;-78
2022/02/18 11:40:42;;;;;;;183.47;24.63;;;7.40;99.90;;;;;;5019910;28;20571;-79
2022/02/18 11:43:27;;;;;;;145.77;21.03;;;7.50;99.90;;;;;;5022432;28;20440;-78
2022/02/18 11:45:59;;;;;;;104.70;19.93;;;7.50;99.90;;;;;;5021802;28;20443;-78
2022/02/18 11:48:41;;;;;;;213.63;22.30;;;7.60;99.90;;;;;;5020639;28;20481;-78
2022/02/18 11:51:18;;;;;;;150.57;21.30;;;7.60;99.90;;;;;;5021632;28;20469;-78
2022/02/18 11:53:52;;;;;;;168.37;29.77;;;7.60;99.90;;;;;;5038429;28;20528;-79
2022/02/18 11:56:41;;;;;;;180.00;25.80;;;7.70;99.90;;;;;;5022993;28;20777;-78
2022/02/18 11:59:10;;;;;;;268.70;33.60;;;7.70;99.90;;;;;;5022399;28;20479;-79
2022/02/18 12:02:10;;;;;;;206.93;23.77;;;7.80;99.90;;;;;;5022201;28;20495;-79
2022/02/18 12:04:39;;;;;;;272.43;33.60;;;7.80;99.90;;;;;;4961806;28;20506;-79
2022/02/18 12:07:28;;;;;;;338.07;38.77;;;7.90;99.90;;;;;;5009612;28;20525;-79
2022/02/18 12:10:07;;;;;;;192.00;30.67;;;7.90;99.90;;;;;;5023587;28;20926;-79
2022/02/18 12:12:37;;;;;;;286.17;42.37;;;8.00;99.90;;;;;;5023637;28;20485;-79
2022/02/18 12:15:14;;;;;;;143.70;19.33;;;8.00;99.90;;;;;;5021985;28;20949;-79
2022/02/18 12:17:54;;;;;;;286.40;34.20;;;8.10;99.90;;;;;;5024463;28;20427;-79
2022/02/18 12:20:26;;;;;;;355.10;32.63;;;8.20;99.90;;;;;;5024654;28;20459;-79
2022/02/18 12:22:57;;;;;;;306.87;37.00;;;8.30;99.90;;;;;;5022728;28;20451;-79
2022/02/18 12:25:29;;;;;;;280.90;39.97;;;8.30;99.90;;;;;;5022803;28;20476;-79
2022/02/18 12:28:21;;;;;;;317.30;45.07;;;8.40;99.90;;;;;;5023494;28;20459;-79
2022/02/18 12:30:57;;;;;;;255.87;40.27;;;8.40;99.90;;;;;;5023053;28;20901;-79
2022/02/18 12:33:29;;;;;;;462.23;39.77;;;8.50;99.90;;;;;;5022414;28;20466;-79
2022/02/18 12:35:57;;;;;;;326.10;39.53;;;8.60;99.90;;;;;;5022147;28;20447;-79
2022/02/18 12:38:25;;;;;;;378.47;54.70;;;8.60;99.90;;;;;;5022388;28;20541;-79
2022/02/18 12:40:55;;;;;;;338.43;43.63;;;8.70;99.90;;;;;;5022664;28;20988;-79
2022/02/18 12:43:23;;;;;;;264.03;38.93;;;8.70;99.90;;;;;;5023390;28;20451;-79
2022/02/18 12:45:58;;;;;;;307.97;40.40;;;8.80;99.90;;;;;;5021959;28;20448;-79
2022/02/18 12:48:40;;;;;;;447.67;60.67;;;8.90;99.90;;;;;;5022558;28;20472;-79
2022/02/18 12:51:22;;;;;;;291.27;41.20;;;8.90;99.90;;;;;;5039998;28;20460;-79
2022/02/18 12:53:52;;;;;;;309.80;45.57;;;9.00;99.90;;;;;;5022680;28;20446;-79